createdAt,value
2019-04-28T00:06:32.142Z,7.10
2019-04-28T00:21:34.357Z,6.50
2019-04-28T00:24:07.579Z,6.40
2019-04-28T00:26:43.439Z,6.40
2019-04-28T00:31:42.129Z,6.40
2019-04-28T00:34:11.461Z,6.40
2019-04-28T00:46:37.860Z,6.40
2019-04-28T00:49:08.598Z,6.50
2019-04-28T01:06:40.613Z,6.40
2019-04-28T01:09:11.733Z,6.40
2019-04-28T01:11:41.437Z,6.40
2019-04-28T01:14:11.459Z,6.40
2019-04-28T01:16:49.839Z,6.40
2019-04-28T01:19:20.218Z,6.50
2019-04-28T01:22:06.529Z,6.50
2019-04-28T01:24:35.245Z,6.60
2019-04-28T01:27:04.173Z,6.60
2019-04-28T01:29:32.874Z,6.80
2019-04-28T01:32:20.341Z,6.70
2019-04-28T01:34:49.876Z,6.70
2019-04-28T01:37:19.636Z,6.70
2019-04-28T01:39:49.609Z,6.80
2019-04-28T01:42:20.273Z,6.70
2019-04-28T01:44:49.511Z,6.80
2019-04-28T01:47:18.342Z,6.80
2019-04-28T01:49:47.365Z,6.80
2019-04-28T01:52:16.010Z,6.80
2019-04-28T01:54:44.659Z,6.80
2019-04-28T01:57:13.293Z,6.90
2019-04-28T01:59:41.882Z,6.90
2019-04-28T02:02:10.536Z,6.90
2019-04-28T02:04:40.276Z,6.90
2019-04-28T02:07:10.886Z,6.90
2019-04-28T02:09:39.636Z,6.80
2019-04-28T02:12:10.515Z,6.90
2019-04-28T02:14:40.389Z,6.80
2019-04-28T02:17:10.517Z,6.80
2019-04-28T02:19:40.978Z,6.80
2019-04-28T02:22:11.490Z,6.80
2019-04-28T02:24:40.577Z,6.80
2019-04-28T02:27:10.626Z,6.80
2019-04-28T02:29:41.443Z,6.80
2019-04-28T02:32:11.633Z,6.80
2019-04-28T02:34:41.223Z,6.80
2019-04-28T02:37:11.298Z,6.70
2019-04-28T02:39:41.167Z,6.80
2019-04-28T02:42:10.961Z,6.80
2019-04-28T02:44:40.837Z,6.80
2019-04-28T02:47:10.848Z,6.80
2019-04-28T02:49:50.130Z,6.90
2019-04-28T02:52:20.704Z,6.70
2019-04-28T02:54:50.769Z,6.70
2019-04-28T02:57:20.868Z,6.80
2019-04-28T02:59:50.842Z,6.80
2019-04-28T03:02:20.771Z,6.80
2019-04-28T03:04:50.626Z,6.70
2019-04-28T03:07:21.779Z,6.70
2019-04-28T03:09:51.983Z,6.70
2019-04-28T03:12:21.582Z,6.70
2019-04-28T03:14:50.737Z,6.70
2019-04-28T03:17:20.789Z,6.60
2019-04-28T03:19:51.672Z,6.60
2019-04-28T03:22:20.517Z,6.50
2019-04-28T03:24:51.146Z,6.40
2019-04-28T03:32:47.365Z,6.40
2019-04-28T03:37:38.051Z,6.40
2019-04-28T03:40:07.237Z,6.30
2019-04-28T03:42:35.978Z,6.30
2019-04-28T03:45:07.113Z,6.40
2019-04-28T03:47:35.573Z,6.30
2019-04-28T05:03:00.684Z,6.30
2019-04-28T05:13:00.843Z,6.10
2019-04-28T05:15:30.385Z,6.40
2019-04-28T05:18:00.253Z,6.50
2019-04-28T05:20:30.285Z,6.60
2019-04-28T05:25:33.292Z,6.60
2019-04-28T05:28:02.993Z,6.90
2019-04-28T05:30:34.803Z,6.90
2019-04-28T05:33:02.053Z,6.90
2019-04-28T05:35:30.834Z,6.90
2019-04-28T05:37:59.866Z,6.90
2019-04-28T05:42:58.198Z,6.90
2019-04-28T05:48:00.659Z,6.90
2019-04-28T05:50:33.872Z,6.90
2019-04-28T05:53:04.146Z,6.90
2019-04-28T05:58:20.706Z,7.10
2019-04-28T06:00:53.958Z,7.40
2019-04-28T06:03:24.342Z,7.60
2019-04-28T06:05:52.948Z,7.80
2019-04-28T06:08:32.335Z,7.80
2019-04-28T06:11:02.495Z,8.00
2019-04-28T06:13:31.054Z,8.10
2019-04-28T06:15:59.915Z,8.00
2019-04-28T06:18:28.549Z,8.20
2019-04-28T06:20:57.030Z,8.30
2019-04-28T06:23:25.566Z,8.30
2019-04-28T06:25:54.130Z,8.40
2019-04-28T06:28:27.444Z,8.60
2019-04-28T06:30:56.065Z,8.50
2019-04-28T06:33:24.695Z,8.60
2019-04-28T06:35:53.261Z,8.70
2019-04-28T06:38:21.871Z,8.80
2019-04-28T06:40:50.504Z,9.10
2019-04-28T06:43:19.046Z,9.20
2019-04-28T06:45:47.701Z,9.30
2019-04-28T06:48:25.032Z,9.40
2019-04-28T06:50:53.726Z,9.40
2019-04-28T06:53:22.547Z,9.40
2019-04-28T06:55:52.218Z,9.30
2019-04-28T06:58:22.485Z,9.30
2019-04-28T07:00:54.496Z,9.30
2019-04-28T07:03:24.955Z,9.00
2019-04-28T07:05:54.004Z,8.80
2019-04-28T07:08:23.024Z,8.90
2019-04-28T07:10:52.824Z,9.30
2019-04-28T07:13:23.683Z,9.90
2019-04-28T07:15:53.812Z,10.00
2019-04-28T07:18:23.113Z,9.50
2019-04-28T07:21:03.769Z,9.40
2019-04-28T07:23:35.691Z,9.30
2019-04-28T07:26:05.836Z,9.30
2019-04-28T07:28:37.177Z,9.50
2019-04-28T07:31:07.725Z,9.70
2019-04-28T07:33:38.014Z,9.70
2019-04-28T07:36:08.969Z,9.90
2019-04-28T07:38:38.619Z,10.00
2019-04-28T07:41:11.124Z,10.00
2019-04-28T07:43:40.689Z,10.10
2019-04-28T07:46:10.865Z,10.20
2019-04-28T07:48:41.353Z,10.10
2019-04-28T07:51:10.297Z,10.40
2019-04-28T07:53:49.250Z,10.60
2019-04-28T07:56:17.979Z,10.70
2019-04-28T07:58:47.816Z,10.90
2019-04-28T08:01:16.916Z,11.10
2019-04-28T08:03:49.676Z,11.60
2019-04-28T08:06:19.991Z,11.90
2019-04-28T08:08:50.710Z,11.70
2019-04-28T08:11:19.891Z,12.00
2019-04-28T08:13:50.655Z,11.60
2019-04-28T08:16:20.131Z,11.20
2019-04-28T08:18:49.588Z,11.10
2019-04-28T08:21:19.401Z,11.10
2019-04-28T08:23:48.599Z,11.20
2019-04-28T08:26:18.015Z,10.80
2019-04-28T08:28:47.046Z,10.70
2019-04-28T08:31:18.103Z,11.10
2019-04-28T08:34:01.282Z,11.70
2019-04-28T08:36:20.093Z,12.00
2019-04-28T08:38:50.166Z,12.40
2019-04-28T08:41:20.730Z,12.70
2019-04-28T08:43:50.992Z,12.40
2019-04-28T08:46:21.572Z,12.20
2019-04-28T08:48:51.139Z,12.10
2019-04-28T08:51:22.031Z,12.30
2019-04-28T08:53:52.476Z,12.00
2019-04-28T08:56:22.825Z,11.70
2019-04-28T08:58:53.774Z,11.60
2019-04-28T09:01:23.779Z,12.20
2019-04-28T09:03:52.901Z,12.50
2019-04-28T09:06:21.816Z,12.40
2019-04-28T09:08:50.465Z,12.60
2019-04-28T09:11:20.859Z,12.40
2019-04-28T09:13:50.470Z,12.10
2019-04-28T09:16:19.522Z,11.90
2019-04-28T09:18:49.041Z,11.50
2019-04-28T09:21:30.292Z,11.80
2019-04-28T09:23:59.016Z,12.50
2019-04-28T09:26:38.700Z,13.00
2019-04-28T09:29:08.962Z,13.50
2019-04-28T09:31:45.131Z,13.90
2019-04-28T09:34:14.093Z,13.80
2019-04-28T09:36:51.198Z,13.70
2019-04-28T09:39:32.190Z,13.60
2019-04-28T09:46:59.674Z,14.00
2019-04-28T09:47:59.610Z,13.50
2019-04-28T09:50:28.865Z,13.40
2019-04-28T09:53:03.885Z,13.80
2019-04-28T09:55:59.648Z,14.00
2019-04-28T09:58:40.821Z,14.10
2019-04-28T10:01:24.820Z,13.90
2019-04-28T10:04:27.730Z,14.20
2019-04-28T10:06:50.856Z,14.60
2019-04-28T10:09:40.922Z,14.80
2019-04-28T10:12:30.544Z,15.60
2019-04-28T10:15:31.349Z,15.80
2019-04-28T10:18:10.954Z,15.70
2019-04-28T10:20:54.792Z,15.80
2019-04-28T10:23:49.601Z,16.40
2019-04-28T10:26:18.395Z,15.30
2019-04-28T10:29:11.602Z,15.10
2019-04-28T10:31:40.956Z,14.10
2019-04-28T10:37:04.086Z,13.70
2019-04-28T10:39:48.007Z,14.20
2019-04-28T10:45:42.316Z,16.60
2019-04-28T10:48:19.271Z,17.10
2019-04-28T10:50:57.128Z,17.50
2019-04-28T10:53:28.762Z,16.90
2019-04-28T10:56:14.368Z,17.60
2019-04-28T10:58:50.265Z,18.10
2019-04-28T11:01:26.201Z,18.20
2019-04-28T11:03:56.576Z,16.50
2019-04-28T11:06:29.710Z,15.50
2019-04-28T11:09:04.400Z,15.70
2019-04-28T11:11:33.077Z,15.30
2019-04-28T11:14:01.798Z,14.40
2019-04-28T11:16:32.218Z,13.90
2019-04-28T11:19:04.113Z,13.50
2019-04-28T11:21:36.770Z,13.10
2019-04-28T11:24:07.893Z,13.60
2019-04-28T11:26:43.826Z,15.20
2019-04-28T11:29:15.295Z,17.70
2019-04-28T11:31:45.600Z,18.10
2019-04-28T11:34:22.000Z,17.40
2019-04-28T11:36:50.836Z,16.20
2019-04-28T11:39:21.294Z,15.10
2019-04-28T11:41:49.924Z,14.40
2019-04-28T11:44:18.558Z,13.90
2019-04-28T11:46:47.229Z,13.80
2019-04-28T11:49:15.813Z,13.90
2019-04-28T11:51:45.659Z,13.80
2019-04-28T11:54:16.410Z,13.40
2019-04-28T11:56:47.088Z,13.30
2019-04-28T11:59:16.114Z,13.00
2019-04-28T12:01:44.906Z,13.20
2019-04-28T12:04:15.383Z,13.20
2019-04-28T12:06:44.065Z,13.30
2019-04-28T12:09:14.271Z,13.00
2019-04-28T12:11:44.497Z,12.80
2019-04-28T12:14:20.684Z,12.90
2019-04-28T12:17:07.006Z,12.90
2019-04-28T12:19:46.122Z,13.20
2019-04-28T12:22:14.858Z,14.70
2019-04-28T12:24:43.474Z,15.30
2019-04-28T12:27:12.123Z,15.00
2019-04-28T12:29:43.350Z,14.20
2019-04-28T12:32:12.053Z,13.20
2019-04-28T12:34:40.799Z,12.70
2019-04-28T12:37:09.939Z,13.70
2019-04-28T12:39:38.535Z,13.40
2019-04-28T12:42:07.209Z,14.30
2019-04-28T12:44:35.819Z,14.50
2019-04-28T12:47:04.600Z,14.40
2019-04-28T12:49:37.559Z,13.90
2019-04-28T12:52:06.249Z,13.40
2019-04-28T12:54:36.445Z,12.80
2019-04-28T12:57:05.086Z,13.00
2019-04-28T12:59:35.416Z,13.50
2019-04-28T13:02:20.887Z,13.50
2019-04-28T13:04:51.251Z,13.30
2019-04-28T13:07:21.181Z,13.00
2019-04-28T13:09:49.733Z,12.70
2019-04-28T13:12:18.472Z,12.80
2019-04-28T13:14:47.231Z,12.70
2019-04-28T13:17:15.715Z,12.90
2019-04-28T13:19:44.301Z,14.00
2019-04-28T13:22:12.929Z,14.90
2019-04-28T13:24:41.556Z,14.70
2019-04-28T13:27:10.457Z,13.90
2019-04-28T13:29:39.366Z,13.70
2019-04-28T13:32:08.120Z,13.20
2019-04-28T13:34:38.416Z,12.90
2019-04-28T13:37:07.103Z,12.90
2019-04-28T13:39:37.399Z,13.00
2019-04-28T13:42:06.654Z,13.60
2019-04-28T13:44:52.972Z,14.20
2019-04-28T13:47:22.238Z,14.00
2019-04-28T13:49:55.614Z,13.80
2019-04-28T13:52:24.158Z,13.80
2019-04-28T13:54:54.538Z,13.20
2019-04-28T13:57:23.338Z,12.70
2019-04-28T13:59:53.744Z,13.00
2019-04-28T14:02:40.575Z,12.80
2019-04-28T14:05:19.395Z,12.70
2019-04-28T14:07:48.404Z,12.50
2019-04-28T14:10:34.477Z,12.20
2019-04-28T14:13:03.022Z,12.30
2019-04-28T14:15:31.569Z,12.50
2019-04-28T14:18:00.290Z,13.10
2019-04-28T14:20:28.970Z,13.20
2019-04-28T14:22:57.611Z,13.20
2019-04-28T14:25:26.287Z,13.50
2019-04-28T14:27:55.006Z,13.10
2019-04-28T14:30:23.742Z,12.80
2019-04-28T14:32:52.282Z,12.70
2019-04-28T14:35:20.922Z,12.40
2019-04-28T14:37:49.616Z,12.00
2019-04-28T14:40:18.218Z,12.20
2019-04-28T14:42:46.724Z,12.10
2019-04-28T14:45:15.499Z,12.20
2019-04-28T14:47:44.175Z,12.00
2019-04-28T14:50:12.814Z,11.80
2019-04-28T14:52:41.375Z,12.00
2019-04-28T14:55:10.166Z,12.00
2019-04-28T14:57:38.822Z,11.90
2019-04-28T15:00:09.479Z,11.90
2019-04-28T15:02:42.945Z,11.80
2019-04-28T15:05:13.429Z,11.70
2019-04-28T15:07:52.600Z,11.60
2019-04-28T15:10:39.310Z,11.50
2019-04-28T15:13:08.267Z,11.50
2019-04-28T15:15:37.367Z,11.40
2019-04-28T15:18:05.870Z,11.30
2019-04-28T15:20:34.652Z,11.40
2019-04-28T15:23:03.526Z,11.50
2019-04-28T15:25:32.103Z,11.50
2019-04-28T15:28:00.744Z,11.40
2019-04-28T15:30:29.392Z,11.40
2019-04-28T15:33:09.566Z,11.30
2019-04-28T15:35:38.199Z,11.20
2019-04-28T15:38:06.747Z,11.40
2019-04-28T15:40:35.468Z,11.30
2019-04-28T15:43:04.184Z,11.20
2019-04-28T15:45:32.894Z,11.20
2019-04-28T15:48:01.662Z,11.30
2019-04-28T15:50:30.208Z,11.50
2019-04-28T15:52:58.858Z,11.50
2019-04-28T15:55:38.162Z,11.40
2019-04-28T15:58:24.867Z,11.40
2019-04-28T16:00:53.565Z,11.40
2019-04-28T16:03:22.285Z,11.50
2019-04-28T16:05:51.095Z,11.60
2019-04-28T16:08:19.646Z,11.50
2019-04-28T16:10:48.360Z,11.40
2019-04-28T16:13:17.146Z,11.20
2019-04-28T16:15:45.860Z,11.20
2019-04-28T16:18:26.807Z,11.30
2019-04-28T16:20:55.675Z,11.30
2019-04-28T16:23:24.377Z,11.30
2019-04-28T16:25:53.002Z,11.20
2019-04-28T16:28:21.757Z,11.20
2019-04-28T16:30:51.139Z,11.20
2019-04-28T16:33:19.764Z,11.20
2019-04-28T16:35:48.514Z,11.30
2019-04-28T16:38:17.110Z,11.10
2019-04-28T16:40:48.176Z,11.00
2019-04-28T16:43:18.822Z,11.00
2019-04-28T16:45:47.469Z,10.90
2019-04-28T16:48:16.240Z,10.90
2019-04-28T16:50:44.908Z,10.90
2019-04-28T16:53:13.442Z,11.00
2019-04-28T16:55:43.661Z,11.00
2019-04-28T16:58:30.013Z,11.00
2019-04-28T17:01:00.275Z,10.90
2019-04-28T17:03:30.527Z,10.80
2019-04-28T17:05:59.147Z,10.70
2019-04-28T17:08:27.808Z,10.60
2019-04-28T17:10:57.321Z,10.60
2019-04-28T17:13:25.931Z,10.60
2019-04-28T17:15:54.502Z,10.60
2019-04-28T17:18:23.083Z,10.70
2019-04-28T17:20:54.338Z,10.80
2019-04-28T17:23:21.969Z,10.70
2019-04-28T17:25:50.502Z,10.60
2019-04-28T17:28:19.211Z,10.60
2019-04-28T17:30:47.805Z,10.40
2019-04-28T17:33:16.519Z,10.20
2019-04-28T17:35:45.208Z,10.10
2019-04-28T17:38:13.906Z,10.20
2019-04-28T17:40:42.859Z,10.20
2019-04-28T17:43:11.498Z,10.10
2019-04-28T17:45:40.111Z,9.80
2019-04-28T17:48:28.515Z,9.70
2019-04-28T17:50:57.201Z,9.50
2019-04-28T17:53:25.862Z,9.50
2019-04-28T17:55:54.415Z,10.30
2019-04-28T17:58:23.050Z,10.50
2019-04-28T18:00:56.031Z,9.90
2019-04-28T18:03:41.460Z,9.70
2019-04-28T18:06:18.379Z,9.50
2019-04-28T18:08:47.363Z,9.40
2019-04-28T18:11:16.039Z,9.40
2019-04-28T18:13:44.672Z,9.40
2019-04-28T18:16:30.021Z,9.40
2019-04-28T18:19:15.371Z,9.30
2019-04-28T18:21:44.065Z,9.30
2019-04-28T18:24:12.671Z,9.30
2019-04-28T18:26:41.283Z,9.30
2019-04-28T18:29:10.061Z,9.10
2019-04-28T18:31:52.317Z,9.20
2019-04-28T18:34:22.707Z,9.20
2019-04-28T18:36:55.548Z,9.20
2019-04-28T18:39:26.179Z,9.10
2019-04-28T18:42:14.682Z,9.20
2019-04-28T18:44:41.932Z,9.20
2019-04-28T18:47:10.548Z,9.00
2019-04-28T18:49:39.172Z,8.90
2019-04-28T18:52:07.778Z,8.80
2019-04-28T18:54:36.338Z,8.80
2019-04-28T18:57:04.979Z,8.70
2019-04-28T18:59:33.575Z,8.60
2019-04-28T19:02:12.510Z,8.60
2019-04-28T19:04:41.050Z,8.60
2019-04-28T19:07:11.330Z,8.60
2019-04-28T19:09:56.324Z,8.60
2019-04-28T19:12:32.424Z,8.50
2019-04-28T19:15:05.425Z,8.40
2019-04-28T19:17:41.619Z,8.40
2019-04-28T19:20:13.394Z,8.30
2019-04-28T19:22:49.585Z,8.30
2019-04-28T19:25:18.081Z,8.30
2019-04-28T19:27:46.677Z,8.30
2019-04-28T19:30:15.456Z,8.30
2019-04-28T19:32:44.103Z,8.40
2019-04-28T19:35:13.373Z,8.40
2019-04-28T19:37:42.063Z,8.40
2019-04-28T19:40:10.838Z,8.30
2019-04-28T19:42:39.539Z,8.40
2019-04-28T19:45:11.962Z,8.30
2019-04-28T19:47:40.370Z,8.30
2019-04-28T19:50:09.861Z,8.30
2019-04-28T19:52:40.967Z,8.30
2019-04-28T19:55:10.599Z,8.20
2019-04-28T19:57:40.898Z,8.20
2019-04-28T20:00:29.991Z,8.20
2019-04-28T20:02:58.555Z,8.20
2019-04-28T20:05:27.282Z,8.30
2019-04-28T20:07:55.902Z,8.30
2019-04-28T20:10:24.556Z,8.30
2019-04-28T20:12:53.278Z,8.20
2019-04-28T20:15:21.871Z,8.20
2019-04-28T20:17:51.574Z,8.20
2019-04-28T20:20:20.143Z,8.30
2019-04-28T20:22:48.852Z,8.40
2019-04-28T20:25:17.541Z,8.40
2019-04-28T20:27:46.247Z,8.20
2019-04-28T20:30:15.149Z,8.20
2019-04-28T20:32:46.959Z,8.20
2019-04-28T20:35:17.572Z,8.20
2019-04-28T20:37:50.652Z,8.20
2019-04-28T20:40:21.094Z,8.20
2019-04-28T20:43:03.127Z,8.10
2019-04-28T20:45:31.870Z,8.10
2019-04-28T20:48:00.399Z,8.10
2019-04-28T20:50:29.110Z,8.10
2019-04-28T20:52:57.815Z,8.10
2019-04-28T20:55:26.420Z,8.10
2019-04-28T20:57:54.949Z,8.10
2019-04-28T21:00:23.644Z,8.10
2019-04-28T21:02:52.262Z,8.00
2019-04-28T21:05:20.980Z,7.90
2019-04-28T21:07:49.658Z,7.90
2019-04-28T21:10:18.354Z,7.90
2019-04-28T21:12:46.908Z,7.90
2019-04-28T21:15:15.652Z,7.80
2019-04-28T21:17:44.192Z,7.90
2019-04-28T21:20:13.009Z,7.80
2019-04-28T21:22:41.618Z,7.80
2019-04-28T21:25:10.390Z,7.70
2019-04-28T21:27:38.987Z,7.70
2019-04-28T21:30:08.590Z,7.80
2019-04-28T21:32:37.202Z,7.80
2019-04-28T21:35:05.903Z,7.80
2019-04-28T21:37:34.515Z,7.70
2019-04-28T21:40:03.397Z,7.70
2019-04-28T21:45:36.504Z,7.60
2019-04-28T21:48:05.182Z,7.60
2019-04-28T21:50:33.742Z,7.60
2019-04-28T21:53:02.269Z,7.60
2019-04-28T21:55:30.824Z,7.60
2019-04-28T21:57:59.674Z,7.70
2019-04-28T22:00:35.382Z,7.70
2019-04-28T22:03:03.994Z,7.70
2019-04-28T22:05:32.708Z,7.80
2019-04-28T22:08:01.295Z,7.80
2019-04-28T22:10:29.921Z,7.80
2019-04-28T22:12:58.470Z,7.70
2019-04-28T22:15:27.230Z,7.60
2019-04-28T22:17:55.692Z,7.60
2019-04-28T22:20:24.328Z,7.70
2019-04-28T22:22:52.879Z,7.60
2019-04-28T22:25:23.146Z,7.70
2019-04-28T22:27:51.723Z,7.60
2019-04-28T22:30:20.438Z,7.60
2019-04-28T22:32:49.050Z,7.60
2019-04-28T22:35:17.953Z,7.60
2019-04-28T22:37:46.624Z,7.60
2019-04-28T22:40:15.295Z,7.60
2019-04-28T22:42:43.984Z,7.60
2019-04-28T22:45:12.849Z,7.60
2019-04-28T22:47:41.648Z,7.60
2019-04-28T22:50:19.115Z,7.60
2019-04-28T22:52:47.676Z,7.70
2019-04-28T22:55:17.859Z,7.60
2019-04-28T22:57:53.799Z,7.70
2019-04-28T23:00:43.220Z,7.70
2019-04-28T23:03:13.747Z,7.60
2019-04-28T23:05:42.734Z,7.60
2019-04-28T23:08:11.353Z,7.60
2019-04-28T23:10:39.965Z,7.50
2019-04-28T23:13:08.595Z,7.60
2019-04-28T23:15:37.123Z,7.60
2019-04-28T23:18:05.826Z,7.60
2019-04-28T23:20:36.009Z,7.60
2019-04-28T23:23:06.268Z,7.50
2019-04-28T23:25:34.901Z,7.50
2019-04-28T23:28:03.778Z,7.50
2019-04-28T23:30:44.098Z,7.50
2019-04-28T23:33:12.771Z,7.50
2019-04-28T23:35:41.436Z,7.50
2019-04-28T23:38:09.972Z,7.50
2019-04-28T23:40:40.326Z,7.50
2019-04-28T23:43:10.505Z,7.50
2019-04-28T23:45:39.316Z,7.50
2019-04-28T23:48:07.856Z,7.50
2019-04-28T23:50:38.051Z,7.50
2019-04-28T23:53:08.233Z,7.40
2019-04-28T23:55:36.870Z,7.40
2019-04-28T23:58:05.546Z,7.50
